Time;durP1;ratioP1;P1;durP2;ratioP2;P2;SDS_P1;SDS_P2;PMS_P1;PMS_P2;Temp;Humidity;BMP_temperature;BMP_pressure;BME280_temperature;BME280_humidity;BME280_pressure;Samples;Min_cycle;Max_cycle;Signal;HPM_P1;HPM_P2
2022/04/15 00:00:32;;;;;;;42.05;18.90;;;;;;;;;;5072085;27;95215;-78
2022/04/15 00:02:58;;;;;;;30.25;17.98;;;;;;;;;;5071519;27;98063;-79
2022/04/15 00:05:37;;;;;;;34.70;19.60;;;;;;;;;;5074737;27;97649;-77
2022/04/15 00:08:04;;;;;;;37.63;19.65;;;;;;;;;;5071641;27;96935;-78
2022/04/15 00:10:31;;;;;;;37.58;19.20;;;;;;;;;;5070178;27;97287;-78
2022/04/15 00:12:57;;;;;;;36.75;19.67;;;;;;;;;;5053610;27;96047;-76
2022/04/15 00:15:24;;;;;;;37.60;20.20;;;;;;;;;;5071562;27;96785;-78
2022/04/15 00:17:51;;;;;;;40.58;21.38;;;;;;;;;;5071014;27;97414;-78
2022/04/15 00:20:17;;;;;;;45.10;22.88;;;;;;;;;;5070998;27;95825;-77
2022/04/15 00:22:44;;;;;;;43.40;22.55;;;;;;;;;;5071416;27;96816;-78
2022/04/15 00:25:10;;;;;;;40.00;23.08;;;;;;;;;;5071034;27;97287;-77
2022/04/15 00:27:40;;;;;;;39.50;22.98;;;;;;;;;;5074620;27;95358;-76
2022/04/15 00:30:07;;;;;;;44.08;22.90;;;;;;;;;;5071476;27;97315;-77
2022/04/15 00:32:34;;;;;;;37.70;23.30;;;;;;;;;;5071038;27;95614;-78
2022/04/15 00:35:00;;;;;;;41.67;23.38;;;;;;;;;;5071484;27;96689;-78
2022/04/15 00:37:27;;;;;;;49.22;23.80;;;;;;;;;;5070931;27;97854;-78
2022/04/15 00:39:53;;;;;;;46.67;23.67;;;;;;;;;;5071082;27;95465;-78
2022/04/15 00:42:20;;;;;;;38.13;22.15;;;;;;;;;;5071397;27;96942;-79
2022/04/15 00:44:48;;;;;;;38.55;21.98;;;;;;;;;;5071132;27;97228;-79
2022/04/15 00:47:18;;;;;;;37.35;20.63;;;;;;;;;;5071256;27;96089;-79
2022/04/15 00:49:45;;;;;;;34.33;20.80;;;;;;;;;;5074823;27;97079;-78
2022/04/15 00:52:12;;;;;;;29.73;18.27;;;;;;;;;;5070664;27;95585;-78
2022/04/15 00:54:41;;;;;;;30.05;19.23;;;;;;;;;;5070756;27;97140;-79
2022/04/15 00:57:09;;;;;;;29.88;18.30;;;;;;;;;;5053158;27;97990;-77
2022/04/15 00:59:36;;;;;;;29.52;18.35;;;;;;;;;;5070409;27;95437;-78
2022/04/15 01:02:03;;;;;;;28.58;18.65;;;;;;;;;;5071084;27;97003;-76
2022/04/15 01:04:30;;;;;;;35.15;17.75;;;;;;;;;;5070678;27;97734;-77
2022/04/15 01:06:58;;;;;;;34.33;19.02;;;;;;;;;;5069941;27;95612;-77
2022/04/15 01:09:25;;;;;;;33.65;17.90;;;;;;;;;;5070823;27;97160;-77
2022/04/15 01:11:53;;;;;;;32.38;18.55;;;;;;;;;;5074027;27;97405;-77
2022/04/15 01:14:23;;;;;;;32.83;19.63;;;;;;;;;;5051875;27;96814;-77
2022/04/15 01:16:50;;;;;;;26.73;17.77;;;;;;;;;;5070637;27;97279;-77
2022/04/15 01:19:16;;;;;;;30.02;18.30;;;;;;;;;;5070327;27;95565;-76
2022/04/15 01:21:44;;;;;;;29.52;18.35;;;;;;;;;;5070603;27;97032;-77
2022/04/15 01:24:10;;;;;;;28.65;16.77;;;;;;;;;;5070938;27;97355;-77
2022/04/15 01:26:40;;;;;;;23.42;15.18;;;;;;;;;;5070161;27;95345;-77
2022/04/15 01:29:06;;;;;;;25.38;15.27;;;;;;;;;;5070528;27;97014;-77
2022/04/15 01:31:33;;;;;;;27.25;15.30;;;;;;;;;;5073635;27;97285;-77
2022/04/15 01:33:59;;;;;;;26.70;15.18;;;;;;;;;;5070086;27;97173;-77
2022/04/15 01:36:26;;;;;;;27.58;16.33;;;;;;;;;;5069558;27;97551;-77
2022/04/15 01:38:55;;;;;;;30.40;17.00;;;;;;;;;;5070802;27;95129;-77
2022/04/15 01:41:41;;;;;;;26.70;15.55;;;;;;;;;;5051253;27;97223;-77
2022/04/15 01:44:10;;;;;;;28.67;16.90;;;;;;;;;;5070341;27;97422;-77
2022/04/15 01:46:37;;;;;;;30.02;18.00;;;;;;;;;;5070113;27;95999;-77
2022/04/15 01:49:03;;;;;;;33.83;17.70;;;;;;;;;;5050941;27;96896;-77
2022/04/15 01:51:33;;;;;;;35.45;19.30;;;;;;;;;;5051704;27;97382;-78
2022/04/15 01:53:59;;;;;;;31.52;17.92;;;;;;;;;;5073350;27;95438;-77
2022/04/15 01:56:26;;;;;;;30.63;16.88;;;;;;;;;;5069141;27;97871;-77
2022/04/15 01:58:52;;;;;;;34.67;18.27;;;;;;;;;;5052021;27;95250;-77
2022/04/15 02:01:18;;;;;;;30.23;18.27;;;;;;;;;;5051465;27;99857;-78
2022/04/15 02:03:45;;;;;;;35.85;19.92;;;;;;;;;;5069050;27;97409;-79
2022/04/15 02:06:11;;;;;;;32.92;19.17;;;;;;;;;;5069667;27;95627;-78
2022/04/15 02:08:38;;;;;;;36.40;19.88;;;;;;;;;;5069579;27;97056;-78
2022/04/15 02:11:04;;;;;;;33.92;18.70;;;;;;;;;;5068768;27;97557;-78
2022/04/15 02:13:30;;;;;;;32.33;19.20;;;;;;;;;;5069846;27;96095;-77
2022/04/15 02:15:57;;;;;;;29.38;18.58;;;;;;;;;;5072739;27;96760;-78
2022/04/15 02:18:26;;;;;;;32.35;19.45;;;;;;;;;;5069028;27;95434;-79
2022/04/15 02:20:52;;;;;;;34.42;19.52;;;;;;;;;;5069770;27;97251;-79
2022/04/15 02:23:19;;;;;;;33.97;18.23;;;;;;;;;;5068503;27;97477;-78
2022/04/15 02:25:45;;;;;;;36.15;18.60;;;;;;;;;;5051367;27;96332;-78
2022/04/15 02:28:11;;;;;;;34.38;19.35;;;;;;;;;;5070074;27;96796;-78
2022/04/15 02:30:38;;;;;;;32.35;18.52;;;;;;;;;;5068948;27;97359;-78
2022/04/15 02:33:04;;;;;;;34.33;19.48;;;;;;;;;;5069971;27;96019;-77
2022/04/15 02:35:31;;;;;;;35.20;19.15;;;;;;;;;;5069370;27;97127;-79
2022/04/15 02:37:57;;;;;;;33.83;19.35;;;;;;;;;;5072180;27;96167;-78
2022/04/15 02:40:23;;;;;;;33.80;19.63;;;;;;;;;;5051057;27;97499;-78
2022/04/15 02:43:08;;;;;;;31.42;18.77;;;;;;;;;;5069661;27;97593;-77
2022/04/15 02:45:54;;;;;;;32.70;19.33;;;;;;;;;;5067899;27;95216;-77
2022/04/15 02:48:20;;;;;;;36.15;19.05;;;;;;;;;;5069286;27;96703;-80
2022/04/15 02:50:46;;;;;;;34.00;18.17;;;;;;;;;;5069205;27;97229;-79
2022/04/15 02:53:13;;;;;;;34.75;19.85;;;;;;;;;;5069072;27;95866;-78
2022/04/15 02:55:39;;;;;;;30.15;17.15;;;;;;;;;;5068841;27;97224;-78
2022/04/15 02:58:05;;;;;;;25.08;16.85;;;;;;;;;;5069085;27;97663;-78
2022/04/15 03:00:32;;;;;;;26.00;15.10;;;;;;;;;;5071985;27;95488;-78
2022/04/15 03:02:58;;;;;;;24.40;12.25;;;;;;;;;;5050809;27;97214;-78
2022/04/15 03:05:25;;;;;;;20.02;11.90;;;;;;;;;;5068719;27;95990;-78
2022/04/15 03:07:51;;;;;;;25.73;12.18;;;;;;;;;;5069127;27;96825;-78
2022/04/15 03:10:18;;;;;;;23.83;11.57;;;;;;;;;;5068867;27;97362;-78
2022/04/15 03:12:44;;;;;;;24.42;11.18;;;;;;;;;;5068776;27;95382;-78
2022/04/15 03:15:10;;;;;;;21.38;11.07;;;;;;;;;;5069153;27;97216;-79
2022/04/15 03:17:37;;;;;;;24.48;11.70;;;;;;;;;;5068398;27;96115;-78
2022/04/15 03:20:04;;;;;;;26.65;10.88;;;;;;;;;;5068838;27;95737;-79
2022/04/15 03:22:34;;;;;;;20.35;10.20;;;;;;;;;;5072448;27;97004;-78
2022/04/15 03:25:01;;;;;;;21.55;10.88;;;;;;;;;;5072718;27;95184;-78
2022/04/15 03:27:27;;;;;;;21.00;10.27;;;;;;;;;;5071995;27;96120;-79
2022/04/15 03:29:53;;;;;;;19.23;10.40;;;;;;;;;;5072382;27;97469;-79
2022/04/15 03:32:20;;;;;;;18.25;10.05;;;;;;;;;;5072646;27;96678;-78
2022/04/15 03:34:46;;;;;;;19.80;10.68;;;;;;;;;;5072113;27;97507;-78
2022/04/15 03:37:12;;;;;;;18.15;10.48;;;;;;;;;;5054095;27;97315;-79
2022/04/15 03:39:39;;;;;;;16.75;9.35;;;;;;;;;;5072250;27;95366;-79
2022/04/15 03:42:07;;;;;;;17.25;9.48;;;;;;;;;;5075492;27;96852;-79
2022/04/15 03:44:34;;;;;;;19.00;10.15;;;;;;;;;;5071905;27;96028;-77
2022/04/15 03:47:00;;;;;;;21.23;10.02;;;;;;;;;;5072408;27;96842;-78
2022/04/15 03:49:27;;;;;;;22.98;9.52;;;;;;;;;;5053127;27;97439;-78
2022/04/15 03:51:53;;;;;;;17.48;9.38;;;;;;;;;;5072688;27;95070;-77
2022/04/15 03:54:20;;;;;;;16.92;8.88;;;;;;;;;;5072282;27;96838;-78
2022/04/15 03:56:46;;;;;;;21.13;9.52;;;;;;;;;;5071895;27;97712;-78
2022/04/15 03:59:13;;;;;;;15.27;7.70;;;;;;;;;;5072282;27;95328;-78
2022/04/15 04:01:39;;;;;;;17.35;7.78;;;;;;;;;;5071961;27;96859;-78
2022/04/15 04:04:06;;;;;;;15.77;8.10;;;;;;;;;;5056696;27;97186;-78
2022/04/15 04:06:32;;;;;;;15.02;7.25;;;;;;;;;;5072603;27;96809;-77
2022/04/15 04:08:58;;;;;;;14.07;7.50;;;;;;;;;;5071776;27;97314;-78
2022/04/15 04:11:25;;;;;;;13.15;7.63;;;;;;;;;;5072230;27;95752;-78
2022/04/15 04:13:51;;;;;;;13.75;7.38;;;;;;;;;;5071824;27;96922;-78
2022/04/15 04:16:18;;;;;;;21.10;9.00;;;;;;;;;;5070675;27;97375;-79
2022/04/15 04:18:45;;;;;;;14.75;8.32;;;;;;;;;;5071553;27;95351;-79
2022/04/15 04:21:12;;;;;;;15.68;8.73;;;;;;;;;;5053928;27;96793;-78
2022/04/15 04:23:38;;;;;;;18.42;8.48;;;;;;;;;;5071210;27;97742;-79
2022/04/15 04:26:05;;;;;;;15.50;8.10;;;;;;;;;;5075061;27;95492;-76
2022/04/15 04:28:32;;;;;;;14.60;8.02;;;;;;;;;;5071643;27;97109;-78
2022/04/15 04:30:58;;;;;;;16.38;7.65;;;;;;;;;;5071934;27;95479;-79
2022/04/15 19:00:28;;;;;;;16.38;10.77;;;;;;;;;;5049887;27;95366;-77
2022/04/15 19:02:54;;;;;;;24.30;10.73;;;;;;;;;;5043549;27;96005;-77
2022/04/15 19:05:24;;;;;;;23.38;10.32;;;;;;;;;;5041767;27;95779;-76
2022/04/15 19:07:51;;;;;;;17.23;10.45;;;;;;;;;;5041385;27;96750;-77
2022/04/15 19:10:18;;;;;;;16.25;9.98;;;;;;;;;;5041743;27;97445;-77
2022/04/15 19:12:44;;;;;;;14.65;10.40;;;;;;;;;;5026082;27;95807;-77
2022/04/15 19:15:28;;;;;;;21.10;10.65;;;;;;;;;;5023494;28;95827;-77
2022/04/15 19:17:55;;;;;;;15.13;10.32;;;;;;;;;;5009162;28;97436;-77
2022/04/15 19:20:24;;;;;;;18.58;10.48;;;;;;;;;;5028433;27;95988;-77
2022/04/15 19:23:09;;;;;;;16.08;11.13;;;;;;;;;;5036765;27;97364;-77
2022/04/15 19:25:39;;;;;;;16.60;10.60;;;;;;;;;;5026039;27;96909;-75
2022/04/15 19:28:11;;;;;;;15.07;9.95;;;;;;;;;;5028231;27;96554;-75
2022/04/15 19:30:40;;;;;;;23.30;11.05;;;;;;;;;;5021952;27;97056;-75
2022/04/15 19:33:11;;;;;;;21.23;10.45;;;;;;;;;;5006357;28;95490;-75
2022/04/15 19:35:41;;;;;;;19.30;11.85;;;;;;;;;;5023169;27;98858;-75
2022/04/15 19:38:12;;;;;;;16.77;11.48;;;;;;;;;;5023004;28;96702;-75
2022/04/15 19:40:43;;;;;;;16.27;10.77;;;;;;;;;;5024254;28;95459;-75
2022/04/15 19:43:17;;;;;;;16.70;11.38;;;;;;;;;;5036548;27;95577;-74
2022/04/15 19:45:49;;;;;;;23.50;12.75;;;;;;;;;;5024346;28;95891;-75
2022/04/15 19:48:19;;;;;;;30.73;12.93;;;;;;;;;;5044917;27;96128;-75
2022/04/15 19:51:04;;;;;;;21.52;12.45;;;;;;;;;;5043466;27;96126;-76
2022/04/15 19:53:34;;;;;;;17.85;11.85;;;;;;;;;;5040614;27;95905;-77
2022/04/15 20:01:53;;;;;;;22.02;14.80;;;;;;;;;;5004758;28;95723;-77
2022/04/15 20:04:24;;;;;;;20.75;12.65;;;;;;;;;;5005670;28;96056;-76
2022/04/15 20:06:51;;;;;;;19.63;12.02;;;;;;;;;;5007670;28;96912;-77
2022/04/15 20:09:19;;;;;;;29.23;11.68;;;;;;;;;;5004535;28;96895;-77
2022/04/15 20:11:48;;;;;;;29.27;18.98;;;;;;;;;;4990847;28;95432;-76
2022/04/15 20:14:35;;;;;;;16.05;12.88;;;;;;;;;;5007784;28;96249;-76
2022/04/15 20:17:05;;;;;;;20.50;14.40;;;;;;;;;;4994349;28;96131;-76
2022/04/15 20:19:32;;;;;;;19.45;14.40;;;;;;;;;;5009930;28;97486;-76
2022/04/15 20:22:03;;;;;;;25.75;18.05;;;;;;;;;;4992795;28;95730;-77
2022/04/15 20:24:41;;;;;;;17.95;12.93;;;;;;;;;;4990858;28;96198;-77
2022/04/15 20:27:08;;;;;;;20.15;13.32;;;;;;;;;;4990026;28;96268;-76
2022/04/15 20:29:36;;;;;;;25.50;14.20;;;;;;;;;;4993966;28;95376;-76
2022/04/15 20:32:04;;;;;;;26.17;15.20;;;;;;;;;;4992094;28;96508;-77
2022/04/15 20:34:37;;;;;;;24.10;13.10;;;;;;;;;;5010619;28;95618;-76
2022/04/15 20:37:17;;;;;;;17.50;12.07;;;;;;;;;;4993113;28;96728;-76
2022/04/15 20:39:47;;;;;;;18.98;13.15;;;;;;;;;;5010838;28;96613;-76
2022/04/15 20:42:15;;;;;;;25.92;12.55;;;;;;;;;;4987837;28;95484;-76
2022/04/15 20:44:42;;;;;;;20.73;12.50;;;;;;;;;;4990983;28;96378;-75
2022/04/15 20:47:09;;;;;;;23.15;13.23;;;;;;;;;;4990774;28;96295;-75
2022/04/15 20:49:53;;;;;;;19.08;12.57;;;;;;;;;;4989723;28;95524;-74
2022/04/15 20:52:21;;;;;;;18.67;12.23;;;;;;;;;;4998940;28;95909;-75
2022/04/15 20:54:57;;;;;;;22.20;12.95;;;;;;;;;;4991009;28;96792;-76
2022/04/15 20:57:30;;;;;;;18.73;12.23;;;;;;;;;;4973692;28;95758;-75
2022/04/15 20:59:57;;;;;;;17.38;11.68;;;;;;;;;;4990418;28;97361;-75
2022/04/15 21:02:24;;;;;;;20.15;12.05;;;;;;;;;;4990900;28;95558;-75
2022/04/15 21:04:51;;;;;;;19.98;11.80;;;;;;;;;;4990482;28;97417;-75
2022/04/15 21:07:21;;;;;;;24.25;12.27;;;;;;;;;;4990264;28;97847;-76
2022/04/15 21:09:50;;;;;;;24.00;12.43;;;;;;;;;;4990167;28;95412;-75
2022/04/15 21:12:17;;;;;;;15.95;11.82;;;;;;;;;;4989714;28;95692;-75
2022/04/15 21:14:49;;;;;;;17.88;11.38;;;;;;;;;;4975217;28;95650;-75
2022/04/15 21:17:16;;;;;;;;;;;;;;;;;;4989874;28;96727;-75
2022/04/15 21:19:44;;;;;;;20.73;11.60;;;;;;;;;;4990233;28;125041;-76
2022/04/15 21:22:13;;;;;;;17.58;12.27;;;;;;;;;;4993021;28;95398;-75
2022/04/15 21:24:40;;;;;;;17.10;12.30;;;;;;;;;;4971820;28;96709;-74
2022/04/15 21:27:07;;;;;;;21.10;12.07;;;;;;;;;;4972404;28;97382;-76
2022/04/15 21:29:34;;;;;;;16.23;11.77;;;;;;;;;;5004799;28;95751;-74
2022/04/15 21:32:05;;;;;;;18.27;11.98;;;;;;;;;;5010110;28;96743;-76
2022/04/15 21:34:32;;;;;;;18.20;12.25;;;;;;;;;;5011093;28;96203;-76
2022/04/15 21:37:00;;;;;;;17.67;11.57;;;;;;;;;;5009728;28;95931;-74
2022/04/15 21:39:28;;;;;;;15.77;11.63;;;;;;;;;;5009322;28;97595;-76
2022/04/15 21:41:56;;;;;;;15.30;11.15;;;;;;;;;;5010133;28;95321;-75
2022/04/15 21:44:25;;;;;;;17.80;11.73;;;;;;;;;;5009358;28;96809;-76
2022/04/15 21:46:51;;;;;;;16.10;11.63;;;;;;;;;;5009632;28;97380;-76
2022/04/15 21:49:21;;;;;;;19.20;11.75;;;;;;;;;;5007562;28;95550;-76
2022/04/15 21:54:38;;;;;;;16.42;11.18;;;;;;;;;;5007319;28;97666;-77
2022/04/15 21:57:07;;;;;;;19.08;10.70;;;;;;;;;;4992804;28;95354;-76
2022/04/15 21:59:35;;;;;;;16.70;11.43;;;;;;;;;;4990320;28;97457;-75
2022/04/15 22:02:03;;;;;;;16.00;11.98;;;;;;;;;;4989872;28;95385;-76
2022/04/15 22:04:29;;;;;;;18.65;11.20;;;;;;;;;;4971537;28;96754;-77
2022/04/15 22:06:56;;;;;;;17.98;11.52;;;;;;;;;;4998697;28;97311;-78
2022/04/15 22:09:22;;;;;;;53.40;11.75;;;;;;;;;;5008226;28;95697;-78
2022/04/15 22:11:48;;;;;;;19.92;11.63;;;;;;;;;;5009450;28;96742;-77
2022/04/15 22:14:14;;;;;;;14.20;11.15;;;;;;;;;;5006175;28;97292;-77
2022/04/15 22:16:41;;;;;;;15.15;11.27;;;;;;;;;;4989350;28;95421;-77
2022/04/15 22:19:07;;;;;;;16.15;10.80;;;;;;;;;;5007063;28;95939;-77
2022/04/15 22:21:33;;;;;;;16.95;11.50;;;;;;;;;;5008750;28;95633;-78
2022/04/15 22:24:00;;;;;;;17.10;10.85;;;;;;;;;;5009412;28;96814;-78
2022/04/15 22:26:27;;;;;;;20.42;11.70;;;;;;;;;;4997832;28;97299;-77
2022/04/15 22:28:55;;;;;;;16.55;11.38;;;;;;;;;;5002779;28;95786;-77
2022/04/15 22:31:21;;;;;;;15.75;11.05;;;;;;;;;;5007518;28;95980;-75
2022/04/15 22:34:07;;;;;;;18.33;11.38;;;;;;;;;;5008022;28;97480;-76
2022/04/15 22:36:34;;;;;;;16.52;11.77;;;;;;;;;;4989125;28;95357;-75
2022/04/15 22:39:00;;;;;;;15.40;11.10;;;;;;;;;;5001997;28;96485;-76
2022/04/15 22:41:26;;;;;;;17.83;11.13;;;;;;;;;;5010642;28;97489;-77
2022/04/15 22:43:55;;;;;;;16.42;11.13;;;;;;;;;;5008833;28;96752;-77
2022/04/15 22:46:21;;;;;;;18.27;11.77;;;;;;;;;;4989234;28;97323;-76
2022/04/15 22:48:48;;;;;;;16.27;10.93;;;;;;;;;;4989745;28;96909;-76
2022/04/15 22:51:15;;;;;;;15.55;11.27;;;;;;;;;;4989086;28;97086;-76
2022/04/15 22:53:41;;;;;;;17.42;11.45;;;;;;;;;;5001571;28;97340;-76
2022/04/15 22:58:53;;;;;;;18.02;10.48;;;;;;;;;;4994643;28;96915;-75
2022/04/15 23:01:23;;;;;;;15.05;10.52;;;;;;;;;;5007957;28;97333;-75
2022/04/15 23:03:54;;;;;;;16.05;10.95;;;;;;;;;;5011773;28;95632;-76
2022/04/15 23:06:22;;;;;;;15.95;10.88;;;;;;;;;;5007907;28;96367;-76
2022/04/15 23:08:49;;;;;;;18.40;11.15;;;;;;;;;;5007993;28;96374;-76
2022/04/15 23:11:18;;;;;;;16.17;11.38;;;;;;;;;;5008069;28;97272;-76
2022/04/15 23:13:45;;;;;;;15.57;10.75;;;;;;;;;;5008617;28;97873;-76
2022/04/15 23:16:12;;;;;;;16.52;11.50;;;;;;;;;;5007629;28;96126;-76
2022/04/15 23:18:52;;;;;;;15.60;10.88;;;;;;;;;;4992440;28;98664;-76
2022/04/15 23:21:18;;;;;;;20.05;11.68;;;;;;;;;;5008130;28;99943;-76
2022/04/15 23:23:45;;;;;;;19.73;12.25;;;;;;;;;;5011520;28;95675;-76
2022/04/15 23:26:13;;;;;;;18.50;11.98;;;;;;;;;;5008400;28;99443;-76
2022/04/15 23:28:39;;;;;;;17.35;12.05;;;;;;;;;;5001135;28;95392;-76
2022/04/15 23:31:06;;;;;;;19.90;12.77;;;;;;;;;;4995049;28;96180;-76
2022/04/15 23:33:33;;;;;;;30.50;13.20;;;;;;;;;;4988126;28;97296;-76
2022/04/15 23:36:02;;;;;;;18.88;12.45;;;;;;;;;;4988055;28;95463;-76
2022/04/15 23:38:28;;;;;;;20.10;13.10;;;;;;;;;;4991261;28;97076;-76
2022/04/15 23:41:12;;;;;;;23.77;12.95;;;;;;;;;;4996817;28;96037;-75
2022/04/15 23:43:41;;;;;;;17.88;12.43;;;;;;;;;;4988052;28;95559;-75
2022/04/15 23:48:53;;;;;;;19.65;13.00;;;;;;;;;;4992812;28;95430;-75
2022/04/15 23:51:21;;;;;;;21.52;14.20;;;;;;;;;;4990703;28;98335;-75
2022/04/15 23:53:48;;;;;;;17.92;13.27;;;;;;;;;;4991494;28;97790;-75
2022/04/15 23:56:23;;;;;;;20.52;13.20;;;;;;;;;;4991206;28;95611;-76
2022/04/15 23:58:50;;;;;;;20.23;13.90;;;;;;;;;;4997246;28;96783;-75
